Airport View

Enter AWOS ICAO identifier for current METAR.

ex. KFNL

KEVB 191915Z 27010KT 4SM -RA BKN025 25/22 A2997

19 Jun 2019 19:22

Frequency: 124.625

Phone: 386-409-4705

Other Area AWOS: KDAB - KOMN - KDED - KSFB

TAF AMD KDAB 191809Z 1918/2018 24009G18KT P6SM VCTS SCT035CB BKN060 TEMPO 1918/1922 VRB15G35KT 2SM TSRA BKN015CB FM200100 22004KT P6SM FEW035 SCT080 BKN250